Time;durP1;ratioP1;P1;durP2;ratioP2;P2;SDS_P1;SDS_P2;PMS_P1;PMS_P2;Temp;Humidity;BMP_temperature;BMP_pressure;BME280_temperature;BME280_humidity;BME280_pressure;Samples;Min_cycle;Max_cycle;Signal;HPM_P1;HPM_P2
2023/03/03 00:00:02;;;;;;;70.32;35.55;;;;;;;-1.71;91.34;100415.27;1707561;84;21194;-84
2023/03/03 00:03:10;;;;;;;65.70;32.50;;;;;;;-1.73;91.41;100411.36;1787329;80;21158;-85
2023/03/03 00:09:32;;;;;;;106.75;49.40;;;;;;;-1.71;91.38;100403.20;1752085;82;21188;-84
2023/03/03 00:12:38;;;;;;;79.17;38.45;;;;;;;-1.74;91.30;100399.36;1758083;81;21212;-85
2023/03/03 00:15:45;;;;;;;74.37;36.63;;;;;;;-1.78;91.36;100387.98;1757436;81;21815;-85
2023/03/03 00:18:53;;;;;;;71.90;32.55;;;;;;;-1.80;91.39;100388.06;1755928;81;21189;-84
2023/03/03 00:22:01;;;;;;;58.63;29.92;;;;;;;-1.83;91.50;100382.91;1757311;81;21795;-85
2023/03/03 00:25:37;;;;;;;64.00;32.15;;;;;;;-1.87;91.48;100380.03;1757308;81;21359;-84
2023/03/03 00:28:56;;;;;;;68.80;33.35;;;;;;;-1.92;91.57;100364.72;1754038;81;21209;-84
2023/03/03 00:32:04;;;;;;;64.42;32.30;;;;;;;-1.94;92.01;100372.45;1734283;82;21232;-84
2023/03/03 00:35:29;;;;;;;71.33;35.00;;;;;;;-1.95;92.06;100370.26;1736122;82;21185;-84
2023/03/03 00:38:36;;;;;;;59.63;28.50;;;;;;;-1.99;91.97;100374.08;1734746;82;21176;-84
2023/03/03 00:41:43;;;;;;;57.67;28.73;;;;;;;-2.03;92.06;100368.52;1735957;82;21188;-84
2023/03/03 00:44:53;;;;;;;65.85;30.65;;;;;;;-2.03;92.24;100371.20;1735773;82;21183;-85
2023/03/03 00:47:59;;;;;;;55.90;28.25;;;;;;;-2.06;92.52;100366.05;1703608;84;21252;-84
2023/03/03 00:51:07;;;;;;;47.75;23.87;;;;;;;-2.04;92.67;100362.78;1735956;82;21200;-84
2023/03/03 00:54:14;;;;;;;55.58;27.60;;;;;;;-2.04;92.76;100368.63;1735924;82;21189;-84
2023/03/03 00:57:20;;;;;;;62.78;27.17;;;;;;;-2.09;92.78;100364.89;1704862;84;21253;-84
2023/03/03 01:00:28;;;;;;;51.98;26.60;;;;;;;-2.08;93.23;100359.42;1735634;82;21186;-84
2023/03/03 01:03:34;;;;;;;55.15;27.13;;;;;;;-2.06;93.23;100359.34;1735841;82;21201;-84
2023/03/03 01:06:40;;;;;;;51.58;27.45;;;;;;;-2.06;93.39;100352.65;1735184;82;21216;-84
2023/03/03 01:09:45;;;;;;;55.10;27.60;;;;;;;-2.04;93.59;100349.37;1733024;82;21214;-84
2023/03/03 01:12:52;;;;;;;56.55;29.32;;;;;;;-2.01;93.56;100354.56;1703709;84;21264;-84
2023/03/03 01:15:45;;;;;;;48.73;25.77;;;;;;;-1.99;93.57;100347.75;1736032;82;21185;-84
2023/03/03 01:18:51;;;;;;;61.33;23.25;;;;;;;-1.99;93.63;100343.25;1734993;82;21176;-84
2023/03/03 01:21:38;;;;;;;49.67;23.87;;;;;;;-1.97;93.66;100356.09;1734679;82;21213;-85
2023/03/03 01:24:44;;;;;;;45.43;18.57;;;;;;;-1.98;93.64;100346.30;1736016;82;21184;-85
2023/03/03 01:27:50;;;;;;;46.95;22.10;;;;;;;-1.93;93.92;100341.55;1735515;82;21284;-86
2023/03/03 01:30:56;;;;;;;43.40;22.52;;;;;;;-1.89;93.76;100343.05;1735957;82;21173;-85
2023/03/03 01:34:02;;;;;;;41.73;21.87;;;;;;;-1.85;93.66;100339.22;1735718;82;21200;-84
2023/03/03 01:37:08;;;;;;;47.00;21.70;;;;;;;-1.87;93.26;100342.50;1735245;82;21216;-84
2023/03/03 01:40:17;;;;;;;56.48;24.82;;;;;;;-1.91;92.86;100336.08;1735921;82;21175;-84
2023/03/03 01:43:23;;;;;;;53.38;22.42;;;;;;;-1.98;92.62;100332.05;1735745;82;21458;-84
2023/03/03 01:46:54;;;;;;;52.27;22.40;;;;;;;-2.03;92.61;100330.13;1735933;82;21177;-84
2023/03/03 01:50:11;;;;;;;53.08;21.97;;;;;;;-2.03;92.90;100331.47;1735811;82;21189;-84
2023/03/03 01:53:20;;;;;;;59.08;28.07;;;;;;;-2.03;93.00;100318.93;1735450;82;21929;-84
2023/03/03 01:56:26;;;;;;;61.02;28.65;;;;;;;-2.02;93.09;100317.11;1735957;82;21244;-84
2023/03/03 01:59:41;;;;;;;54.53;26.93;;;;;;;-2.05;92.76;100316.84;1734860;82;21201;-84
2023/03/03 02:02:47;;;;;;;51.40;25.82;;;;;;;-2.06;92.89;100317.80;1735904;82;21192;-84
2023/03/03 02:05:53;;;;;;;42.33;22.20;;;;;;;-2.08;92.85;100311.66;1734353;82;21185;-84
2023/03/03 02:09:23;;;;;;;46.08;23.40;;;;;;;-2.09;92.56;100313.48;1734972;82;21216;-84
2023/03/03 02:12:34;;;;;;;37.42;21.50;;;;;;;-2.17;92.47;100306.39;1754582;82;21172;-84
2023/03/03 02:15:40;;;;;;;42.23;20.68;;;;;;;-2.21;92.45;100303.55;1721837;83;21247;-85
2023/03/03 02:18:48;;;;;;;56.48;23.18;;;;;;;-2.30;92.40;100306.80;1722639;82;21501;-84
2023/03/03 02:21:55;;;;;;;80.60;37.50;;;;;;;-2.37;92.55;100298.73;1754266;82;21242;-85
2023/03/03 02:25:07;;;;;;;58.25;28.00;;;;;;;-2.44;92.58;100304.95;1754543;82;21140;-83
2023/03/03 02:28:14;;;;;;;53.38;23.10;;;;;;;-2.50;92.65;100307.98;1721644;83;21743;-84
2023/03/03 02:31:23;;;;;;;48.13;22.58;;;;;;;-2.54;92.85;100308.27;1754632;82;21914;-84
2023/03/03 02:34:31;;;;;;;45.80;20.80;;;;;;;-2.61;92.78;100305.11;1754674;82;21239;-84
2023/03/03 02:37:31;;;;;;;47.83;21.93;;;;;;;-2.65;93.07;100301.75;1754151;82;21216;-84
2023/03/03 02:40:39;;;;;;;44.50;22.05;;;;;;;-2.66;93.25;100293.82;1754242;82;21758;-84
2023/03/03 02:44:05;;;;;;;39.00;20.17;;;;;;;-2.65;93.34;100296.88;1754204;82;21204;-84
2023/03/03 02:47:10;;;;;;;47.65;21.55;;;;;;;-2.67;93.35;100286.75;1754208;82;21489;-84
2023/03/03 02:50:17;;;;;;;42.05;20.40;;;;;;;-2.71;93.34;100282.05;1753020;82;21227;-85
2023/03/03 02:53:24;;;;;;;42.98;20.15;;;;;;;-2.72;93.48;100275.45;1753503;82;21226;-84
2023/03/03 02:56:31;;;;;;;45.67;20.92;;;;;;;-2.71;93.66;100272.67;1754205;82;21219;-84
2023/03/03 02:59:37;;;;;;;39.75;19.27;;;;;;;-2.71;93.66;100275.83;1753784;80;21195;-84
2023/03/03 03:02:43;;;;;;;48.85;22.05;;;;;;;-2.75;93.51;100273.81;1722927;83;21192;-84
2023/03/03 03:05:49;;;;;;;43.40;21.93;;;;;;;-2.83;93.60;100262.22;1754453;82;21191;-84
2023/03/03 03:08:56;;;;;;;45.78;21.77;;;;;;;-2.77;94.25;100265.51;1721853;83;21228;-84
2023/03/03 03:12:02;;;;;;;40.73;21.95;;;;;;;-2.72;94.59;100264.75;1752614;82;21271;-83
2023/03/03 03:15:08;;;;;;;49.25;24.82;;;;;;;-2.65;94.83;100261.58;1754650;82;21238;-84
2023/03/03 03:18:14;;;;;;;49.18;24.70;;;;;;;-2.61;94.71;100263.61;1754773;82;21191;-83
2023/03/03 03:21:20;;;;;;;47.65;24.23;;;;;;;-2.59;94.30;100248.29;1754811;82;21509;-83
2023/03/03 03:24:28;;;;;;;45.43;22.45;;;;;;;-2.60;93.93;100246.58;1753841;82;21258;-83
2023/03/03 03:27:33;;;;;;;42.35;23.12;;;;;;;-2.63;93.76;100256.16;1755042;82;21191;-84
2023/03/03 03:30:38;;;;;;;46.18;22.95;;;;;;;-2.65;93.81;100246.00;1753521;82;21187;-84
2023/03/03 03:33:44;;;;;;;54.38;23.02;;;;;;;-2.63;93.90;100250.80;1755342;82;21238;-84
2023/03/03 03:36:49;;;;;;;50.83;24.10;;;;;;;-2.60;93.91;100243.89;1723507;83;21232;-83
2023/03/03 03:39:56;;;;;;;49.25;24.82;;;;;;;-2.62;93.72;100244.00;1753620;81;21250;-84
2023/03/03 03:43:03;;;;;;;34.98;18.67;;;;;;;-2.68;93.31;100254.20;1753580;82;21238;-84
2023/03/03 03:46:09;;;;;;;41.73;19.80;;;;;;;-2.71;93.65;100250.40;1753732;82;21175;-83
2023/03/03 03:49:15;;;;;;;42.17;20.05;;;;;;;-2.77;93.84;100244.95;1755202;82;21200;-83
2023/03/03 03:52:21;;;;;;;36.93;18.65;;;;;;;-2.74;94.33;100241.20;1755188;82;21176;-83
2023/03/03 03:55:27;;;;;;;40.67;19.00;;;;;;;-2.70;94.56;100242.74;1753639;82;21346;-85
2023/03/03 03:58:27;;;;;;;38.30;18.93;;;;;;;-2.68;94.39;100239.48;1755100;82;21188;-83
2023/03/03 04:01:33;;;;;;;37.17;18.77;;;;;;;-2.66;94.32;100230.89;1753581;82;21180;-84
2023/03/03 04:04:39;;;;;;;37.15;16.57;;;;;;;-2.57;94.63;100223.63;1721930;83;21192;-83
2023/03/03 04:07:44;;;;;;;41.53;18.50;;;;;;;-2.42;95.15;100224.49;1754714;82;21176;-84
2023/03/03 04:10:44;;;;;;;26.33;14.47;;;;;;;-2.30;95.05;100232.25;1753588;82;21231;-85
2023/03/03 04:13:49;;;;;;;44.98;21.82;;;;;;;-2.20;95.17;100229.38;1723139;83;21200;-85
2023/03/03 04:16:57;;;;;;;42.10;21.65;;;;;;;-2.08;95.11;100229.91;1754423;82;21187;-85
2023/03/03 04:20:04;;;;;;;35.88;19.80;;;;;;;-2.00;95.08;100224.92;1754514;82;21171;-84
2023/03/03 04:23:10;;;;;;;40.38;19.00;;;;;;;-1.92;95.16;100217.26;1754853;82;21223;-85
2023/03/03 04:26:17;;;;;;;31.65;17.32;;;;;;;-1.85;95.13;100217.23;1754888;82;21235;-83
2023/03/03 04:29:23;;;;;;;38.83;18.35;;;;;;;-1.74;95.15;100222.36;1754240;82;21552;-85
2023/03/03 04:32:29;;;;;;;29.48;17.60;;;;;;;-1.67;94.99;100227.72;1754557;82;21243;-84
2023/03/03 04:35:36;;;;;;;42.60;18.10;;;;;;;-1.57;94.93;100227.49;1754721;82;21179;-84
2023/03/03 04:38:41;;;;;;;47.08;24.12;;;;;;;-1.48;94.67;100223.34;1754603;82;21184;-85
2023/03/03 04:41:47;;;;;;;44.90;20.43;;;;;;;-1.40;94.42;100229.07;1721941;83;21211;-85
2023/03/03 04:44:46;;;;;;;36.23;17.20;;;;;;;-1.40;94.07;100224.56;1723024;82;21271;-85
2023/03/03 04:47:39;;;;;;;32.33;16.90;;;;;;;-1.41;93.99;100228.22;1752749;82;21741;-84
2023/03/03 04:50:45;;;;;;;33.27;15.07;;;;;;;-1.36;94.24;100227.91;1753035;82;21869;-84
2023/03/03 04:53:50;;;;;;;29.87;15.68;;;;;;;-1.31;94.43;100227.12;1754097;82;21207;-84
2023/03/03 04:56:57;;;;;;;34.08;17.17;;;;;;;-1.25;94.69;100224.50;1752633;82;21499;-84
2023/03/03 05:00:03;;;;;;;43.92;17.55;;;;;;;-1.15;95.04;100230.47;1722525;83;21208;-84
2023/03/03 05:03:09;;;;;;;32.30;15.68;;;;;;;-1.04;95.17;100229.73;1754055;82;21180;-84
2023/03/03 05:06:13;;;;;;;31.15;15.18;;;;;;;-0.92;95.22;100236.97;1754054;82;21244;-83
2023/03/03 05:09:20;;;;;;;27.22;14.15;;;;;;;-0.86;95.00;100235.19;1754008;82;21203;-85
2023/03/03 05:12:27;;;;;;;26.82;14.38;;;;;;;-0.81;94.84;100238.42;1751411;82;21223;-83
2023/03/03 05:15:34;;;;;;;31.55;15.68;;;;;;;-0.73;94.86;100242.42;1722420;83;21211;-84
2023/03/03 05:18:40;;;;;;;32.08;14.23;;;;;;;-0.67;94.82;100233.92;1722686;83;21200;-83
2023/03/03 05:21:44;;;;;;;25.62;13.25;;;;;;;-0.56;94.94;100234.05;1722039;83;21208;-83
2023/03/03 05:24:34;;;;;;;30.77;14.13;;;;;;;-0.48;94.63;100239.73;1722786;83;21750;-83
2023/03/03 05:27:19;;;;;;;25.00;14.03;;;;;;;-0.44;94.52;100243.06;1722678;83;21220;-83
2023/03/03 05:30:13;;;;;;;37.28;14.70;;;;;;;-0.37;94.50;100233.63;1721878;83;21239;-83
2023/03/03 05:33:00;;;;;;;31.37;15.15;;;;;;;-0.31;94.38;100232.69;1722871;83;21252;-84
2023/03/03 05:35:55;;;;;;;27.52;14.10;;;;;;;-0.25;94.17;100226.01;1723518;83;21215;-84
2023/03/03 05:38:41;;;;;;;26.90;14.00;;;;;;;-0.16;94.17;100229.39;1714419;82;21192;-83
2023/03/03 05:41:48;;;;;;;25.67;13.80;;;;;;;-0.11;94.05;100229.91;1740363;82;21514;-84
2023/03/03 05:44:54;;;;;;;31.57;14.60;;;;;;;-0.04;94.13;100225.83;1739869;82;21455;-84
2023/03/03 05:48:02;;;;;;;30.48;13.98;;;;;;;0.07;94.21;100232.25;1739724;82;21204;-83
2023/03/03 05:51:08;;;;;;;32.53;14.30;;;;;;;0.18;94.12;100234.52;1740834;82;21200;-85
2023/03/03 05:54:14;;;;;;;29.23;13.50;;;;;;;0.38;94.31;100239.81;1741057;82;21188;-85
2023/03/03 05:57:20;;;;;;;26.00;13.90;;;;;;;0.55;93.89;100237.20;1739978;82;21228;-83
2023/03/03 06:00:27;;;;;;;30.37;13.80;;;;;;;0.68;93.52;100234.45;1741076;82;21806;-84
2023/03/03 06:03:34;;;;;;;30.30;13.13;;;;;;;0.79;92.88;100241.22;1724927;82;21787;-85
2023/03/03 06:06:39;;;;;;;26.30;12.98;;;;;;;0.88;92.44;100238.33;1736590;81;21152;-85
2023/03/03 06:09:45;;;;;;;29.25;13.78;;;;;;;0.95;92.18;100231.03;1743213;81;21172;-83
2023/03/03 06:12:51;;;;;;;25.17;14.13;;;;;;;1.03;92.06;100238.50;1706437;82;21235;-85
2023/03/03 06:15:56;;;;;;;21.05;12.23;;;;;;;1.15;92.10;100232.67;1699599;83;21279;-85
2023/03/03 06:19:02;;;;;;;25.55;13.38;;;;;;;1.25;91.77;100222.41;1766771;81;21196;-85
2023/03/03 06:22:08;;;;;;;23.65;12.37;;;;;;;1.34;91.54;100226.72;1731195;81;21169;-85
2023/03/03 06:25:15;;;;;;;24.25;12.10;;;;;;;1.46;91.22;100224.43;1762069;81;21133;-83
2023/03/03 06:28:23;;;;;;;22.32;11.88;;;;;;;1.56;91.00;100224.07;1752830;79;21171;-84
2023/03/03 06:31:29;;;;;;;27.27;13.27;;;;;;;1.67;90.72;100221.86;1766922;79;21228;-85
2023/03/03 06:34:35;;;;;;;29.32;13.43;;;;;;;1.75;90.31;100220.77;1787893;79;21260;-85
2023/03/03 06:37:41;;;;;;;27.07;12.93;;;;;;;1.83;90.13;100228.23;1764398;79;21145;-84
2023/03/03 06:40:46;;;;;;;29.77;13.60;;;;;;;1.93;89.78;100227.86;1755116;81;21145;-86
2023/03/03 06:43:53;;;;;;;30.57;13.72;;;;;;;2.01;89.24;100224.06;1747361;81;21224;-85
2023/03/03 06:47:01;;;;;;;21.68;12.68;;;;;;;2.13;89.15;100231.17;1768914;81;21196;-85
2023/03/03 06:50:00;;;;;;;;;;;;;;;2.23;89.02;100228.59;1767859;81;21160;-85
2023/03/03 06:53:22;;;;;;;25.62;13.38;;;;;;;2.27;88.79;100220.12;1747146;81;20238;-84
2023/03/03 06:56:31;;;;;;;32.15;15.30;;;;;;;2.34;88.84;100227.70;1752857;79;21184;-87
2023/03/03 06:59:42;;;;;;;27.85;11.73;;;;;;;2.42;88.70;100220.70;1740620;81;21176;-87
2023/03/03 07:02:51;;;;;;;27.05;13.45;;;;;;;2.54;88.53;100220.16;1734719;81;22402;-84
2023/03/03 07:05:56;;;;;;;29.50;13.22;;;;;;;2.62;88.39;100220.39;1753552;80;21204;-86
2023/03/03 07:09:04;;;;;;;26.50;11.53;;;;;;;2.71;87.95;100218.27;1757912;81;21181;-85
2023/03/03 07:12:23;;;;;;;23.30;10.88;;;;;;;2.78;87.43;100215.44;1756486;81;21188;-85
2023/03/03 07:15:42;;;;;;;23.62;10.90;;;;;;;2.81;87.04;100215.16;1763011;79;21193;-85
2023/03/03 07:19:02;;;;;;;20.85;10.93;;;;;;;2.87;86.42;100221.02;1776309;79;21180;-85
2023/03/03 07:22:22;;;;;;;24.77;11.57;;;;;;;2.87;85.83;100212.92;1756550;79;21176;-85
2023/03/03 07:25:36;;;;;;;24.67;10.35;;;;;;;2.88;85.56;100209.26;1727229;81;21690;-85
2023/03/03 07:28:51;;;;;;;22.62;10.93;;;;;;;2.90;85.42;100214.88;1730972;81;21315;-85
2023/03/03 07:31:58;;;;;;;28.05;11.85;;;;;;;2.95;85.29;100210.44;1720421;81;21237;-87
2023/03/03 07:35:04;;;;;;;19.55;10.32;;;;;;;3.06;85.16;100209.05;1706757;82;21239;-86
2023/03/03 07:38:12;;;;;;;22.40;10.68;;;;;;;3.20;84.77;100203.78;1706864;82;21189;-87
2023/03/03 07:41:26;;;;;;;23.47;10.85;;;;;;;3.30;84.66;100200.68;1765718;81;21141;-85
2023/03/03 07:44:39;;;;;;;25.43;11.45;;;;;;;3.42;84.39;100205.01;1764187;79;21724;-86
2023/03/03 07:47:45;;;;;;;22.45;11.90;;;;;;;3.56;84.43;100200.61;1760090;80;21207;-86
2023/03/03 07:50:52;;;;;;;25.35;11.35;;;;;;;3.74;83.98;100197.28;1776552;78;21160;-87
2023/03/03 07:54:03;;;;;;;22.32;11.35;;;;;;;3.89;83.33;100190.51;1770159;79;22141;-86
2023/03/03 07:57:26;;;;;;;21.48;9.78;;;;;;;3.96;82.84;100185.42;1772365;79;21172;-86
2023/03/03 08:00:53;;;;;;;19.48;10.10;;;;;;;4.04;82.22;100181.52;1774542;80;21381;-85
2023/03/03 08:04:00;;;;;;;24.25;11.95;;;;;;;4.11;81.90;100175.92;1767276;80;21172;-86
2023/03/03 08:07:08;;;;;;;20.32;10.63;;;;;;;4.25;81.71;100185.01;1773382;79;21230;-87
2023/03/03 08:10:29;;;;;;;22.40;11.10;;;;;;;4.41;80.83;100184.95;1779138;78;21137;-86
2023/03/03 08:13:43;;;;;;;22.85;11.80;;;;;;;4.55;80.30;100182.70;1766100;80;22234;-86
2023/03/03 08:16:49;;;;;;;24.30;10.35;;;;;;;4.72;80.12;100179.80;1756655;78;21187;-86
2023/03/03 08:19:58;;;;;;;22.98;11.03;;;;;;;4.87;78.96;100176.16;1744115;80;22039;-85
2023/03/03 08:22:57;;;;;;;21.35;11.05;;;;;;;4.95;78.27;100180.38;1748674;81;21159;-85
2023/03/03 08:25:51;;;;;;;21.73;11.43;;;;;;;5.13;78.15;100175.94;1737299;81;21179;-85
2023/03/03 08:28:57;;;;;;;23.63;11.70;;;;;;;5.26;77.70;100168.83;1747687;79;21235;-85
2023/03/03 08:32:05;;;;;;;21.30;12.13;;;;;;;5.33;77.40;100169.13;1741452;79;21222;-84
2023/03/03 08:35:10;;;;;;;24.45;11.40;;;;;;;5.41;76.66;100169.25;1741822;79;21147;-85
2023/03/03 08:38:15;;;;;;;24.60;12.25;;;;;;;5.41;76.08;100169.73;1747146;81;21494;-86
2023/03/03 08:41:21;;;;;;;31.12;12.35;;;;;;;5.31;75.93;100166.53;1733735;80;21179;-84
2023/03/03 08:44:27;;;;;;;24.50;12.75;;;;;;;5.32;76.00;100149.28;1748608;81;21329;-85
2023/03/03 08:47:33;;;;;;;21.40;11.93;;;;;;;5.36;75.70;100149.83;1729504;81;21274;-85
2023/03/03 08:50:39;;;;;;;23.45;11.33;;;;;;;5.42;75.47;100147.91;1743417;80;21195;-85
2023/03/03 08:53:45;;;;;;;23.18;11.97;;;;;;;5.49;74.84;100149.51;1753161;80;21235;-85
2023/03/03 08:56:53;;;;;;;22.48;12.55;;;;;;;5.49;74.84;100148.16;1761147;80;21207;-84
2023/03/03 08:59:58;;;;;;;23.22;11.33;;;;;;;5.52;74.99;100143.80;1747690;81;21187;-85
2023/03/03 09:03:06;;;;;;;20.20;11.83;;;;;;;5.62;74.90;100139.19;1718816;82;21230;-86
2023/03/03 09:06:06;;;;;;;24.98;11.45;;;;;;;5.69;74.33;100136.22;1730971;81;21180;-84
2023/03/03 09:09:06;;;;;;;23.50;11.60;;;;;;;5.74;73.80;100138.02;1725950;81;21214;-84
2023/03/03 09:12:25;;;;;;;21.33;11.22;;;;;;;5.80;73.92;100131.97;1729776;82;21184;-84
2023/03/03 09:15:34;;;;;;;24.72;11.78;;;;;;;5.90;73.95;100131.42;1726872;82;21192;-85
2023/03/03 09:18:44;;;;;;;22.98;12.55;;;;;;;5.95;73.60;100128.79;1722763;82;21211;-86
2023/03/03 09:21:50;;;;;;;21.02;11.63;;;;;;;5.95;72.86;100121.50;1770267;80;21144;-85
2023/03/03 09:24:55;;;;;;;20.37;12.33;;;;;;;6.05;72.69;100116.02;1779483;80;21132;-85
2023/03/03 09:28:05;;;;;;;21.40;12.07;;;;;;;6.14;72.35;100109.66;1769190;79;21370;-85
2023/03/03 09:31:09;;;;;;;21.70;11.40;;;;;;;6.25;72.01;100107.23;1778364;79;21160;-85
2023/03/03 09:34:44;;;;;;;21.37;12.58;;;;;;;6.36;71.20;100101.09;1781900;79;21157;-85
2023/03/03 09:37:52;;;;;;;25.17;11.60;;;;;;;6.43;70.57;100101.31;1773841;79;21224;-84
2023/03/03 09:41:30;;;;;;;23.42;13.05;;;;;;;6.49;69.65;100102.55;1780425;79;22292;-85
2023/03/03 09:45:24;;;;;;;28.32;12.60;;;;;;;6.56;69.70;100105.86;1782756;79;21187;-84
2023/03/03 09:48:54;;;;;;;22.40;12.00;;;;;;;6.66;69.20;100097.63;1765570;79;21133;-84
2023/03/03 09:52:05;;;;;;;21.87;10.88;;;;;;;6.76;68.58;100092.09;1764318;80;21153;-82
2023/03/03 09:55:48;;;;;;;25.17;12.80;;;;;;;6.76;67.91;100077.15;1776121;80;21227;-85
2023/03/03 09:59:13;;;;;;;20.85;11.15;;;;;;;6.76;67.73;100080.72;1763966;80;21184;-83
2023/03/03 10:02:38;;;;;;;24.02;12.18;;;;;;;6.75;68.23;100071.37;1768601;79;21156;-84
2023/03/03 10:06:07;;;;;;;24.12;11.65;;;;;;;6.75;67.71;100068.14;1769449;79;21193;-85
2023/03/03 10:09:37;;;;;;;22.48;12.63;;;;;;;6.75;67.94;100069.50;1758189;80;21243;-83
2023/03/03 10:12:52;;;;;;;25.23;11.93;;;;;;;6.81;67.77;100059.34;1771006;80;21187;-84
2023/03/03 10:16:28;;;;;;;26.50;11.90;;;;;;;6.86;66.89;100055.64;1770275;79;21176;-84
2023/03/03 10:19:39;;;;;;;26.52;10.82;;;;;;;6.90;67.58;100052.95;1753821;79;21290;-84
2023/03/03 10:23:03;;;;;;;20.48;11.12;;;;;;;6.99;66.93;100043.50;1707170;83;21208;-84
2023/03/03 10:26:29;;;;;;;22.98;12.13;;;;;;;7.10;66.05;100042.72;1748301;80;21186;-85
2023/03/03 10:29:52;;;;;;;21.65;11.90;;;;;;;7.17;64.23;100044.30;1741119;80;21211;-85
2023/03/03 10:33:18;;;;;;;28.50;13.25;;;;;;;7.28;64.56;100035.86;1744204;80;21184;-84
2023/03/03 10:36:43;;;;;;;23.73;11.08;;;;;;;7.33;64.41;100026.70;1757757;80;21156;-84
2023/03/03 10:40:09;;;;;;;21.12;10.98;;;;;;;7.20;64.07;100027.67;1736042;80;21124;-85
2023/03/03 10:43:52;;;;;;;23.50;10.60;;;;;;;7.09;63.63;100019.26;1752635;80;21171;-83
2023/03/03 10:47:31;;;;;;;16.25;9.35;;;;;;;6.99;63.71;100014.95;1740587;82;21108;-85
2023/03/03 10:50:51;;;;;;;15.80;9.33;;;;;;;6.98;64.07;100008.66;1738043;82;21183;-85
2023/03/03 10:54:36;;;;;;;22.10;10.30;;;;;;;6.88;62.82;100006.56;1750994;82;21203;-85
2023/03/03 10:58:05;;;;;;;23.07;10.08;;;;;;;6.75;63.21;99995.25;1733028;82;21878;-84
2023/03/03 11:01:23;;;;;;;18.65;10.20;;;;;;;6.55;63.77;99995.46;1749582;82;21192;-85
2023/03/03 11:04:55;;;;;;;15.40;9.95;;;;;;;6.48;64.08;99987.58;1730626;82;21196;-84
2023/03/03 11:08:07;;;;;;;17.55;10.35;;;;;;;6.46;64.34;99990.97;1725864;82;21192;-84
2023/03/03 11:11:43;;;;;;;18.80;9.60;;;;;;;6.42;64.13;99982.78;1726058;82;21365;-85
2023/03/03 11:14:59;;;;;;;16.60;9.75;;;;;;;6.42;64.34;99983.29;1719751;83;21223;-85
2023/03/03 11:18:22;;;;;;;16.45;9.75;;;;;;;6.44;65.18;99982.61;1728784;82;21199;-85
2023/03/03 11:21:31;;;;;;;22.52;10.28;;;;;;;6.37;64.94;99979.17;1737990;82;21227;-84
2023/03/03 11:24:54;;;;;;;13.90;9.30;;;;;;;6.27;65.50;99974.86;1685058;85;21271;-84
2023/03/03 11:28:21;;;;;;;19.50;10.82;;;;;;;6.29;65.74;99968.75;1739913;82;21196;-84
2023/03/03 11:31:38;;;;;;;15.08;9.20;;;;;;;6.27;65.64;99966.70;1749053;82;21172;-83
2023/03/03 11:35:05;;;;;;;18.60;9.63;;;;;;;6.24;66.08;99966.50;1698155;82;21256;-83
2023/03/03 11:38:26;;;;;;;20.55;9.83;;;;;;;6.17;66.43;99972.23;1751238;82;21806;-84
2023/03/03 11:41:42;;;;;;;16.25;9.13;;;;;;;6.06;66.29;99967.02;1737808;82;21244;-85
2023/03/03 11:45:27;;;;;;;14.25;8.33;;;;;;;6.00;66.09;99964.93;1749947;82;21232;-84
2023/03/03 11:48:50;;;;;;;26.15;9.28;;;;;;;5.99;66.35;99959.16;1749784;82;21187;-85
2023/03/03 11:52:27;;;;;;;15.48;8.75;;;;;;;5.98;67.19;99950.16;1755322;81;21168;-86
2023/03/03 11:59:18;;;;;;;14.33;8.38;;;;;;;6.13;65.53;99953.17;1749060;80;22464;-85
2023/03/03 12:03:05;;;;;;;18.52;8.60;;;;;;;6.14;65.37;99955.72;1733730;81;21727;-84
2023/03/03 12:06:36;;;;;;;21.30;10.05;;;;;;;6.12;65.12;99956.40;1737206;82;21236;-84
2023/03/03 12:10:23;;;;;;;12.23;8.48;;;;;;;6.09;65.30;99944.48;1741725;81;21857;-84
2023/03/03 12:13:38;;;;;;;14.03;8.78;;;;;;;6.08;65.53;99946.00;1735244;82;21195;-85
2023/03/03 12:17:05;;;;;;;12.20;8.50;;;;;;;6.08;65.54;99947.36;1722001;81;21216;-84
2023/03/03 12:21:05;;;;;;;20.15;10.55;;;;;;;6.09;65.42;99944.48;1734054;82;21716;-86
2023/03/03 12:24:38;;;;;;;14.28;8.00;;;;;;;5.99;65.47;99944.23;1732697;82;21169;-89
2023/03/03 12:28:15;;;;;;;16.95;8.75;;;;;;;5.90;66.00;99945.47;1725620;82;21187;-89
2023/03/03 12:31:42;;;;;;;18.73;9.53;;;;;;;5.83;66.46;99938.97;1708652;82;21154;-85
2023/03/03 12:34:55;;;;;;;17.45;9.08;;;;;;;5.79;66.47;99938.92;1730264;82;21180;-87
2023/03/03 12:38:11;;;;;;;14.75;9.05;;;;;;;5.75;66.43;99931.25;1725834;82;21200;-89
2023/03/03 12:41:52;;;;;;;13.90;8.30;;;;;;;5.71;66.36;99933.41;1699396;82;21184;-81
2023/03/03 12:45:17;;;;;;;16.85;8.15;;;;;;;5.64;66.15;99925.52;1698979;84;21744;-90
2023/03/03 12:48:28;;;;;;;15.93;9.35;;;;;;;5.56;66.12;99920.03;1708099;82;21740;-80
2023/03/03 12:51:55;;;;;;;16.93;9.75;;;;;;;5.50;66.56;99920.62;1720637;82;21176;-90
2023/03/03 12:55:36;;;;;;;15.85;8.40;;;;;;;5.44;67.15;99917.17;1717468;83;21224;-89
2023/03/03 12:59:06;;;;;;;13.55;7.90;;;;;;;5.39;67.38;99909.49;1714166;83;21221;-80
2023/03/03 13:02:34;;;;;;;17.37;9.30;;;;;;;5.33;66.73;99908.25;1688479;83;21236;-80
2023/03/03 13:05:56;;;;;;;15.23;8.73;;;;;;;5.31;66.84;99900.75;1687624;85;21118;-84
2023/03/03 13:09:30;;;;;;;14.87;8.45;;;;;;;5.33;67.19;99901.47;1733666;82;21173;-80
2023/03/03 13:12:48;;;;;;;13.43;7.30;;;;;;;5.32;67.17;99898.92;1701034;84;21203;-81
2023/03/03 13:16:00;;;;;;;12.05;8.10;;;;;;;5.28;66.80;99905.14;1689184;83;21220;-89
2023/03/03 13:19:27;;;;;;;16.85;8.25;;;;;;;5.22;66.71;99896.27;1693537;83;21243;-81
2023/03/03 13:23:03;;;;;;;17.48;9.25;;;;;;;5.15;67.22;99888.38;1683113;85;21229;-80
2023/03/03 13:26:35;;;;;;;16.82;9.10;;;;;;;5.10;68.07;99889.34;1683165;85;21160;-80
2023/03/03 13:30:00;;;;;;;18.37;9.00;;;;;;;5.06;68.79;99882.00;1683014;85;21173;-80
2023/03/03 13:33:24;;;;;;;14.03;7.97;;;;;;;5.02;69.22;99881.10;1692535;83;21771;-79
2023/03/03 13:36:36;;;;;;;14.68;8.85;;;;;;;4.94;68.85;99879.64;1666769;86;21236;-81
2023/03/03 13:39:53;;;;;;;22.30;9.53;;;;;;;4.86;68.83;99874.98;1683641;85;21223;-80
2023/03/03 13:43:10;;;;;;;17.25;9.10;;;;;;;4.77;69.23;99871.32;1669204;86;21264;-88
2023/03/03 13:46:55;;;;;;;17.57;10.25;;;;;;;4.71;69.81;99867.86;1683548;85;21167;-89
2023/03/03 13:50:40;;;;;;;16.10;10.53;;;;;;;4.68;70.39;99865.44;1683072;85;21222;-90
2023/03/03 13:54:07;;;;;;;18.77;11.28;;;;;;;4.65;70.92;99860.31;1682741;85;21238;-80
2023/03/03 13:57:34;;;;;;;21.60;12.03;;;;;;;4.62;71.46;99852.50;1682963;85;21282;-89
2023/03/03 14:00:57;;;;;;;20.77;12.07;;;;;;;4.60;71.77;99851.78;1701344;84;21254;-88
2023/03/03 14:04:22;;;;;;;21.50;12.58;;;;;;;4.56;71.74;99851.25;1700381;84;21234;-88
2023/03/03 14:07:55;;;;;;;20.90;12.30;;;;;;;4.54;71.96;99847.81;1700130;82;22211;-80
2023/03/03 14:11:32;;;;;;;22.15;12.90;;;;;;;4.53;72.30;99849.33;1701156;84;21755;-80
2023/03/03 14:15:03;;;;;;;19.95;13.72;;;;;;;4.53;72.49;99843.91;1701336;84;21231;-89
2023/03/03 14:18:35;;;;;;;23.40;13.05;;;;;;;4.52;72.61;99840.86;1699955;84;21254;-80
2023/03/03 14:22:05;;;;;;;19.42;12.55;;;;;;;4.51;72.79;99839.13;1699890;84;21219;-81
2023/03/03 14:25:21;;;;;;;19.37;12.88;;;;;;;4.51;73.07;99833.72;1701256;84;21316;-90
2023/03/03 14:28:22;;;;;;;26.73;15.20;;;;;;;4.49;73.46;99833.02;1699888;84;21254;-90
2023/03/03 14:31:32;;;;;;;27.65;13.83;;;;;;;4.43;73.76;99837.69;1701306;84;21183;-80
2023/03/03 14:34:41;;;;;;;20.75;12.25;;;;;;;4.41;74.14;99828.84;1699947;84;21202;-79
2023/03/03 14:37:52;;;;;;;24.85;12.50;;;;;;;4.40;74.25;99828.50;1700934;84;21222;-80
2023/03/03 14:41:11;;;;;;;22.02;13.13;;;;;;;4.34;74.49;99826.73;1701123;84;21191;-79
2023/03/03 14:44:32;;;;;;;26.05;13.85;;;;;;;4.28;74.87;99822.39;1681476;84;21211;-79
2023/03/03 14:47:41;;;;;;;20.45;13.15;;;;;;;4.22;75.28;99819.78;1701226;84;21226;-81
2023/03/03 14:50:49;;;;;;;27.20;12.75;;;;;;;4.17;75.73;99818.02;1683891;84;21242;-79
2023/03/03 14:53:55;;;;;;;26.52;12.33;;;;;;;4.14;76.06;99810.22;1701679;84;21775;-89